Time;durP1;ratioP1;P1;durP2;ratioP2;P2;SDS_P1;SDS_P2;PMS_P1;PMS_P2;Temp;Humidity;BMP_temperature;BMP_pressure;BME280_temperature;BME280_humidity;BME280_pressure;Samples;Min_cycle;Max_cycle;Signal;HPM_P1;HPM_P2
2023/11/17 00:00:07;;;;;;;4.60;3.80;;;7.00;99.90;;;;;;5051061;28;20194;-67
2023/11/17 00:02:36;;;;;;;5.07;3.70;;;7.00;99.90;;;;;;5050748;28;20681;-68
2023/11/17 00:05:03;;;;;;;4.07;3.47;;;7.00;99.90;;;;;;5049389;28;20230;-69
2023/11/17 00:07:30;;;;;;;5.07;4.03;;;7.00;99.90;;;;;;5048284;28;20197;-67
2023/11/17 00:09:58;;;;;;;3.90;3.33;;;7.00;99.90;;;;;;5035620;28;20279;-66
2023/11/17 00:12:25;;;;;;;5.37;3.40;;;7.00;99.90;;;;;;5053532;28;20286;-66
2023/11/17 00:14:53;;;;;;;5.47;4.30;;;7.00;99.90;;;;;;5036674;28;20292;-66
2023/11/17 00:17:22;;;;;;;4.30;3.73;;;7.00;99.90;;;;;;5054458;28;20194;-67
2023/11/17 00:19:51;;;;;;;4.03;3.60;;;6.90;99.90;;;;;;5053275;28;20277;-67
2023/11/17 00:22:20;;;;;;;4.50;3.53;;;6.90;99.90;;;;;;5053867;28;20682;-67
2023/11/17 00:24:47;;;;;;;4.67;3.10;;;6.90;99.90;;;;;;5052634;28;20251;-67
2023/11/17 00:27:14;;;;;;;3.10;2.80;;;6.90;99.90;;;;;;5036113;28;20218;-68
2023/11/17 00:29:41;;;;;;;6.97;4.57;;;6.90;99.90;;;;;;5046949;28;20222;-67
2023/11/17 00:32:10;;;;;;;5.73;4.03;;;6.90;99.90;;;;;;5054800;28;20225;-67
2023/11/17 00:34:37;;;;;;;6.07;4.47;;;6.90;99.90;;;;;;5053429;28;20194;-68
2023/11/17 00:37:07;;;;;;;4.80;4.00;;;6.90;99.90;;;;;;5054343;28;20209;-67
2023/11/17 00:39:35;;;;;;;6.20;4.37;;;6.90;99.90;;;;;;5053016;28;20194;-68
2023/11/17 00:42:02;;;;;;;5.33;3.97;;;6.90;99.90;;;;;;5052485;28;20280;-68
2023/11/17 00:44:30;;;;;;;4.83;3.87;;;6.90;99.90;;;;;;5054125;28;20210;-67
2023/11/17 00:46:57;;;;;;;6.03;4.00;;;6.90;99.90;;;;;;5051867;28;20255;-67
2023/11/17 00:49:26;;;;;;;5.77;3.93;;;6.90;99.90;;;;;;5052137;28;20240;-68
2023/11/17 00:51:54;;;;;;;6.17;4.47;;;6.90;99.90;;;;;;5052281;28;20205;-68
2023/11/17 00:54:26;;;;;;;5.07;3.97;;;6.90;99.90;;;;;;5048504;28;20251;-68
2023/11/17 00:56:54;;;;;;;5.70;3.97;;;6.90;99.90;;;;;;5053529;28;20724;-68
2023/11/17 00:59:22;;;;;;;5.23;3.63;;;6.90;99.90;;;;;;5035883;28;20213;-68
2023/11/17 01:01:50;;;;;;;4.77;3.67;;;6.90;99.90;;;;;;5035688;28;20214;-68
2023/11/17 01:04:17;;;;;;;4.63;3.53;;;6.90;99.90;;;;;;5029876;28;20250;-67
2023/11/17 01:06:46;;;;;;;3.37;3.07;;;6.90;99.90;;;;;;5031429;28;20526;-68
2023/11/17 01:09:14;;;;;;;6.37;3.70;;;6.90;99.90;;;;;;5022611;28;20685;-67
2023/11/17 01:11:41;;;;;;;5.10;4.00;;;6.90;99.90;;;;;;5023273;28;20202;-67
2023/11/17 01:14:09;;;;;;;4.87;3.83;;;6.90;99.90;;;;;;5031702;28;20240;-67
2023/11/17 01:16:36;;;;;;;5.83;4.73;;;6.90;99.90;;;;;;5033720;28;20202;-67
2023/11/17 01:19:03;;;;;;;6.07;3.93;;;6.90;99.90;;;;;;5029427;28;20218;-67
2023/11/17 01:21:30;;;;;;;6.73;4.60;;;6.90;99.90;;;;;;5033705;28;20214;-67
2023/11/17 01:24:01;;;;;;;8.00;4.97;;;6.90;99.90;;;;;;5030576;28;20199;-68
2023/11/17 01:26:28;;;;;;;8.20;5.20;;;6.90;99.90;;;;;;5025778;28;20716;-68
2023/11/17 01:28:55;;;;;;;7.60;4.87;;;6.90;99.90;;;;;;5032941;28;20218;-68
2023/11/17 01:31:22;;;;;;;6.23;4.17;;;6.90;99.90;;;;;;5033457;28;20194;-68
2023/11/17 01:33:50;;;;;;;5.70;3.93;;;6.90;99.90;;;;;;5032216;28;20206;-68
2023/11/17 01:36:17;;;;;;;7.03;5.03;;;6.90;99.90;;;;;;5033311;28;20198;-68
2023/11/17 01:38:44;;;;;;;5.33;4.17;;;6.80;99.90;;;;;;5031903;28;20199;-68
2023/11/17 01:41:15;;;;;;;5.33;4.20;;;6.90;99.90;;;;;;5027913;28;20218;-68
2023/11/17 01:43:43;;;;;;;6.93;4.93;;;6.90;99.90;;;;;;5031611;28;20550;-68
2023/11/17 01:46:11;;;;;;;6.53;4.93;;;6.90;99.90;;;;;;5033468;28;20209;-68
2023/11/17 01:48:38;;;;;;;7.47;4.83;;;6.90;99.90;;;;;;5032613;28;20202;-68
2023/11/17 01:51:07;;;;;;;7.93;5.77;;;6.90;99.90;;;;;;5031464;28;20273;-68
2023/11/17 01:53:34;;;;;;;5.47;4.40;;;6.90;99.90;;;;;;5032734;28;20555;-68
2023/11/17 01:56:01;;;;;;;9.03;6.00;;;6.90;99.90;;;;;;5031943;28;20199;-68
2023/11/17 01:58:30;;;;;;;10.47;6.40;;;6.90;99.90;;;;;;5031988;28;20198;-68
2023/11/17 02:00:57;;;;;;;9.00;5.80;;;6.90;99.90;;;;;;5029045;28;20583;-68
2023/11/17 02:03:24;;;;;;;8.77;5.67;;;6.90;99.90;;;;;;5045335;28;20199;-68
2023/11/17 02:05:57;;;;;;;9.53;5.77;;;6.80;99.90;;;;;;5030085;28;20264;-68
2023/11/17 02:08:46;;;;;;;13.80;8.37;;;6.80;99.90;;;;;;5028179;28;20648;-68
2023/11/17 02:11:23;;;;;;;10.70;6.40;;;6.80;99.90;;;;;;5029125;28;20372;-68
2023/11/17 02:14:00;;;;;;;11.60;7.03;;;6.80;99.90;;;;;;5031222;28;20206;-68
2023/11/17 02:16:30;;;;;;;7.47;5.57;;;6.80;99.90;;;;;;5031251;28;20272;-68
2023/11/17 02:19:00;;;;;;;6.70;4.97;;;6.80;99.90;;;;;;5031267;28;20194;-68
2023/11/17 02:21:31;;;;;;;6.87;4.80;;;6.80;99.90;;;;;;5030677;28;20194;-68
2023/11/17 02:24:00;;;;;;;8.10;5.33;;;6.80;99.90;;;;;;5031538;28;20232;-68
2023/11/17 02:26:36;;;;;;;7.40;5.17;;;6.90;99.90;;;;;;5029041;28;20209;-68
2023/11/17 02:29:10;;;;;;;6.03;4.70;;;6.80;99.90;;;;;;5031091;28;20268;-68
2023/11/17 02:31:39;;;;;;;8.63;5.70;;;6.80;99.90;;;;;;5032371;28;20658;-68
2023/11/17 02:34:10;;;;;;;8.00;5.97;;;6.80;99.90;;;;;;5029067;28;20309;-67
2023/11/17 02:36:38;;;;;;;7.40;5.50;;;6.80;99.90;;;;;;5031985;28;20256;-68
2023/11/17 02:39:13;;;;;;;8.17;5.80;;;6.80;99.90;;;;;;5029514;28;20298;-68
2023/11/17 02:41:47;;;;;;;10.17;6.47;;;6.90;99.90;;;;;;5024517;28;20253;-68
2023/11/17 02:44:16;;;;;;;6.90;5.50;;;6.90;99.90;;;;;;5028675;28;20555;-68
2023/11/17 02:46:45;;;;;;;10.23;6.80;;;6.90;99.90;;;;;;5031625;28;20627;-68
2023/11/17 02:49:22;;;;;;;8.33;6.20;;;6.90;99.90;;;;;;5030526;28;20298;-68
2023/11/17 02:51:51;;;;;;;7.57;5.53;;;6.90;99.90;;;;;;5031780;28;20244;-68
2023/11/17 02:54:21;;;;;;;7.20;5.07;;;6.90;99.90;;;;;;5029914;28;20222;-68
2023/11/17 02:56:49;;;;;;;5.77;4.77;;;6.90;99.90;;;;;;5030409;28;20261;-68
2023/11/17 02:59:19;;;;;;;6.87;4.60;;;6.90;99.90;;;;;;5029531;28;20301;-68
2023/11/17 03:01:50;;;;;;;10.53;6.90;;;6.90;99.90;;;;;;5029207;28;20302;-68
2023/11/17 03:04:17;;;;;;;6.80;5.33;;;6.90;99.90;;;;;;5036833;28;20332;-68
2023/11/17 03:06:46;;;;;;;9.23;5.50;;;6.90;99.90;;;;;;5045578;28;20200;-68
2023/11/17 03:09:17;;;;;;;8.00;5.13;;;6.80;99.90;;;;;;5049782;28;20205;-67
2023/11/17 03:11:45;;;;;;;12.00;6.97;;;6.80;99.90;;;;;;5050099;28;20273;-66
2023/11/17 03:14:12;;;;;;;10.43;7.10;;;6.80;99.90;;;;;;5050578;28;20575;-67
2023/11/17 03:16:40;;;;;;;10.77;6.93;;;6.80;99.90;;;;;;5051135;28;20511;-67
2023/11/17 03:19:10;;;;;;;7.87;5.87;;;6.80;99.90;;;;;;5047511;28;20225;-67
2023/11/17 03:21:41;;;;;;;8.43;5.60;;;6.70;99.90;;;;;;5047142;28;20200;-66
2023/11/17 03:24:14;;;;;;;10.67;6.33;;;6.70;99.90;;;;;;5050352;28;20198;-66
2023/11/17 03:26:43;;;;;;;9.30;6.67;;;6.70;99.90;;;;;;5050928;28;20718;-64
2023/11/17 03:29:14;;;;;;;6.67;5.17;;;6.70;99.90;;;;;;5050998;28;20274;-66
2023/11/17 03:31:47;;;;;;;7.07;5.77;;;6.70;99.90;;;;;;5052002;28;20201;-65
2023/11/17 03:34:23;;;;;;;8.00;5.70;;;6.70;99.90;;;;;;5050462;28;20685;-66
2023/11/17 03:36:56;;;;;;;6.93;5.33;;;6.70;99.90;;;;;;5048873;28;20193;-66
2023/11/17 03:39:23;;;;;;;7.33;5.67;;;6.70;99.90;;;;;;5047309;28;20602;-66
2023/11/17 03:41:50;;;;;;;7.40;5.87;;;6.80;99.90;;;;;;5048991;28;20401;-67
2023/11/17 03:44:17;;;;;;;6.10;4.87;;;6.70;99.90;;;;;;5050532;28;20280;-67
2023/11/17 03:46:48;;;;;;;9.87;6.57;;;6.70;99.90;;;;;;5053956;28;20661;-65
2023/11/17 03:49:19;;;;;;;5.83;4.50;;;6.80;99.90;;;;;;5052015;28;20201;-65
2023/11/17 03:51:47;;;;;;;5.03;4.40;;;6.80;99.90;;;;;;5052878;28;20225;-66
2023/11/17 03:54:16;;;;;;;4.83;4.20;;;6.80;99.90;;;;;;5050357;28;20209;-67
2023/11/17 03:56:44;;;;;;;6.77;5.47;;;6.80;99.90;;;;;;5050514;28;20194;-69
2023/11/17 03:59:13;;;;;;;6.83;4.97;;;6.80;99.90;;;;;;5048435;28;20554;-67
2023/11/17 04:01:41;;;;;;;6.17;5.07;;;6.80;99.90;;;;;;5032201;28;20684;-67
2023/11/17 04:04:08;;;;;;;5.03;4.30;;;6.80;99.90;;;;;;5049058;28;20225;-66
2023/11/17 04:06:38;;;;;;;5.83;4.47;;;6.80;99.90;;;;;;5028162;28;20260;-67
2023/11/17 04:09:07;;;;;;;5.47;4.50;;;6.90;99.90;;;;;;5049089;28;20202;-67
2023/11/17 04:11:34;;;;;;;7.83;5.70;;;6.90;99.90;;;;;;5049957;28;20197;-67
2023/11/17 04:14:04;;;;;;;6.77;5.50;;;6.90;99.90;;;;;;5049647;28;20213;-68
2023/11/17 04:16:31;;;;;;;6.53;5.07;;;6.80;99.90;;;;;;5050614;28;20198;-68
2023/11/17 04:18:59;;;;;;;7.53;5.30;;;6.80;99.90;;;;;;5042220;28;20209;-68
2023/11/17 04:21:26;;;;;;;7.07;5.30;;;6.90;99.90;;;;;;5050112;28;20251;-68
2023/11/17 04:23:55;;;;;;;7.77;5.87;;;6.90;99.90;;;;;;5049679;28;20226;-68
2023/11/17 04:26:22;;;;;;;6.83;5.20;;;6.80;99.90;;;;;;5050185;28;20196;-67
2023/11/17 04:28:50;;;;;;;8.40;6.07;;;6.80;99.90;;;;;;5049577;28;20201;-68
2023/11/17 04:31:18;;;;;;;7.23;5.20;;;6.80;99.90;;;;;;5050530;28;20194;-66
2023/11/17 04:33:46;;;;;;;8.13;6.33;;;6.80;99.90;;;;;;5049594;28;20234;-68
2023/11/17 04:36:14;;;;;;;6.90;5.43;;;6.80;99.90;;;;;;5046904;28;20620;-67
2023/11/17 04:38:41;;;;;;;8.40;6.20;;;6.80;99.90;;;;;;5031126;28;20214;-67
2023/11/17 04:41:13;;;;;;;9.10;6.13;;;6.80;99.90;;;;;;5049512;28;20202;-67
2023/11/17 04:43:40;;;;;;;7.57;5.80;;;6.80;99.90;;;;;;5049116;28;20249;-67
2023/11/17 04:46:07;;;;;;;10.20;6.63;;;6.80;99.90;;;;;;5050650;28;20616;-67
2023/11/17 04:48:34;;;;;;;9.07;6.20;;;6.80;99.90;;;;;;5049286;28;20590;-67
2023/11/17 04:51:01;;;;;;;10.03;6.73;;;6.80;99.90;;;;;;5049589;28;20201;-67
2023/11/17 04:53:28;;;;;;;8.57;6.00;;;6.80;99.90;;;;;;5053114;28;20301;-67
2023/11/17 04:55:55;;;;;;;7.73;5.80;;;6.70;99.90;;;;;;5049980;28;20275;-67
2023/11/17 04:58:23;;;;;;;7.63;5.80;;;6.70;99.90;;;;;;5053136;28;20198;-67
2023/11/17 05:00:50;;;;;;;7.10;4.87;;;6.70;99.90;;;;;;5053583;28;20657;-67
2023/11/17 05:03:18;;;;;;;7.27;5.63;;;6.70;99.90;;;;;;5051929;28;20276;-68
2023/11/17 05:05:48;;;;;;;8.90;5.63;;;6.70;99.90;;;;;;5052294;28;20236;-68
2023/11/17 05:08:16;;;;;;;10.50;6.90;;;6.70;99.90;;;;;;5052045;28;20289;-68
2023/11/17 05:10:43;;;;;;;8.33;5.73;;;6.70;99.90;;;;;;5047828;28;20220;-68
2023/11/17 05:13:11;;;;;;;6.90;5.30;;;6.70;99.90;;;;;;5052639;28;20197;-68
2023/11/17 05:15:43;;;;;;;7.00;4.97;;;6.70;99.90;;;;;;5053040;28;20201;-68
2023/11/17 05:18:10;;;;;;;7.80;5.63;;;6.70;99.90;;;;;;5053535;28;20191;-68
2023/11/17 05:20:37;;;;;;;7.53;5.10;;;6.70;99.90;;;;;;5049475;28;20649;-68
2023/11/17 05:23:04;;;;;;;5.97;4.63;;;6.70;99.90;;;;;;5052853;28;20251;-68
2023/11/17 05:25:32;;;;;;;4.53;3.43;;;6.70;99.90;;;;;;5050235;28;20195;-68
2023/11/17 05:27:59;;;;;;;4.17;3.53;;;6.70;99.90;;;;;;5047492;28;20751;-68
2023/11/17 05:30:26;;;;;;;5.37;3.67;;;6.80;99.90;;;;;;5053407;28;20581;-68
2023/11/17 05:32:54;;;;;;;5.20;3.53;;;6.80;99.90;;;;;;5053260;28;20295;-68
2023/11/17 05:35:21;;;;;;;5.60;3.60;;;6.80;99.90;;;;;;5051601;28;20217;-68
2023/11/17 05:37:48;;;;;;;4.43;3.30;;;6.80;99.90;;;;;;5052904;28;20604;-69
2023/11/17 05:40:15;;;;;;;5.87;4.43;;;6.80;99.90;;;;;;5051337;28;20198;-67
2023/11/17 05:42:43;;;;;;;5.33;3.90;;;6.90;99.90;;;;;;5051785;28;20260;-67
2023/11/17 05:45:12;;;;;;;4.90;3.80;;;6.80;99.90;;;;;;5050301;28;20626;-67
2023/11/17 05:47:39;;;;;;;6.20;4.63;;;6.80;99.90;;;;;;5052532;28;20675;-68
2023/11/17 05:50:11;;;;;;;5.07;4.10;;;6.80;99.90;;;;;;5051425;28;20221;-68
2023/11/17 05:52:39;;;;;;;5.83;3.97;;;6.80;99.90;;;;;;5052384;28;20217;-67
2023/11/17 05:55:07;;;;;;;4.13;3.73;;;6.80;99.90;;;;;;5034065;28;20228;-67
2023/11/17 05:57:34;;;;;;;5.93;4.67;;;6.80;99.90;;;;;;5052482;28;20194;-68
2023/11/17 06:00:08;;;;;;;4.43;4.03;;;6.80;99.90;;;;;;5052056;28;20229;-68
2023/11/17 06:02:39;;;;;;;5.27;4.37;;;6.80;99.90;;;;;;5044602;28;20193;-67
2023/11/17 06:05:09;;;;;;;4.10;3.70;;;6.80;99.90;;;;;;5050115;28;20236;-67
2023/11/17 06:07:36;;;;;;;6.77;5.13;;;6.80;99.90;;;;;;5052381;28;20594;-67
2023/11/17 06:10:03;;;;;;;5.13;4.40;;;6.80;99.90;;;;;;5051769;28;20280;-68
2023/11/17 06:12:31;;;;;;;5.10;4.40;;;6.80;99.90;;;;;;5045247;28;20194;-67
2023/11/17 06:14:58;;;;;;;6.57;4.13;;;6.80;99.90;;;;;;5045104;28;20260;-67
2023/11/17 06:17:25;;;;;;;6.40;4.77;;;6.80;99.90;;;;;;5051869;28;20277;-67
2023/11/17 06:19:52;;;;;;;7.83;4.97;;;6.90;99.90;;;;;;5051277;28;20236;-67
2023/11/17 06:22:21;;;;;;;7.90;5.50;;;6.80;99.90;;;;;;5051649;28;20337;-67
2023/11/17 06:24:48;;;;;;;7.40;5.20;;;6.90;99.90;;;;;;5033854;28;20225;-67
2023/11/17 06:27:16;;;;;;;7.03;5.33;;;6.90;99.90;;;;;;5032645;28;20224;-67
2023/11/17 06:29:43;;;;;;;5.03;4.20;;;6.90;99.90;;;;;;5050406;28;20715;-67
2023/11/17 06:32:10;;;;;;;7.13;4.90;;;6.90;99.90;;;;;;5051860;28;20297;-67
2023/11/17 06:34:36;;;;;;;8.10;5.17;;;6.80;99.90;;;;;;5050914;28;20217;-67
2023/11/17 06:37:05;;;;;;;5.57;4.23;;;6.80;99.90;;;;;;5051927;28;20198;-67
2023/11/17 06:39:33;;;;;;;6.30;5.07;;;6.80;99.90;;;;;;5051587;28;20199;-68
2023/11/17 06:42:00;;;;;;;5.40;4.53;;;6.80;99.90;;;;;;5050036;28;20204;-67
2023/11/17 06:44:27;;;;;;;5.10;4.07;;;6.80;99.90;;;;;;5049142;28;20278;-67
2023/11/17 06:46:55;;;;;;;3.57;3.27;;;6.80;99.90;;;;;;5051248;28;20302;-67
2023/11/17 06:49:24;;;;;;;5.03;4.17;;;6.80;99.90;;;;;;5048193;28;20201;-67
2023/11/17 06:51:52;;;;;;;6.03;4.20;;;6.70;99.90;;;;;;5033601;28;20577;-68
2023/11/17 06:54:21;;;;;;;6.43;4.90;;;6.70;99.90;;;;;;5051131;28;20688;-67
2023/11/17 06:56:51;;;;;;;7.20;4.93;;;6.70;99.90;;;;;;5051662;28;20247;-68
2023/11/17 06:59:20;;;;;;;9.43;5.27;;;6.80;99.90;;;;;;5051196;28;20726;-68
2023/11/17 07:01:49;;;;;;;6.83;4.63;;;6.80;99.90;;;;;;5051513;28;20545;-68
2023/11/17 07:04:16;;;;;;;6.73;4.70;;;6.70;99.90;;;;;;5048051;28;20689;-67
2023/11/17 07:06:44;;;;;;;8.20;5.10;;;6.70;99.90;;;;;;5051426;28;20385;-68
2023/11/17 07:09:16;;;;;;;6.80;5.23;;;6.70;99.90;;;;;;5030406;28;20220;-67
2023/11/17 07:11:44;;;;;;;10.23;6.03;;;6.80;99.90;;;;;;5038578;28;20194;-68
2023/11/17 07:14:12;;;;;;;10.27;5.77;;;6.80;99.90;;;;;;5047212;28;20658;-67
2023/11/17 07:16:41;;;;;;;7.30;5.37;;;6.80;99.90;;;;;;5049400;28;20241;-67
2023/11/17 07:19:08;;;;;;;11.17;6.57;;;6.80;99.90;;;;;;5047793;28;20201;-68
2023/11/17 07:21:36;;;;;;;8.90;5.20;;;6.80;99.90;;;;;;5048355;28;20743;-67
2023/11/17 07:24:05;;;;;;;8.90;5.27;;;6.80;99.90;;;;;;5048172;28;20297;-67
2023/11/17 07:26:33;;;;;;;11.10;6.53;;;6.80;99.90;;;;;;5046908;28;20202;-67
2023/11/17 07:29:01;;;;;;;8.27;5.33;;;6.80;99.90;;;;;;5040795;28;21185;-67
2023/11/17 07:31:37;;;;;;;19.00;7.33;;;6.80;99.90;;;;;;5045349;28;20270;-67
2023/11/17 07:34:05;;;;;;;20.90;9.13;;;6.80;99.90;;;;;;5052331;28;20692;-67
2023/11/17 07:36:32;;;;;;;20.73;10.43;;;6.80;99.90;;;;;;5048050;28;20729;-67
2023/11/17 07:39:01;;;;;;;16.50;8.60;;;6.80;99.90;;;;;;5046327;28;20202;-67
2023/11/17 07:41:28;;;;;;;15.93;8.37;;;6.80;99.90;;;;;;5043931;28;20272;-67
2023/11/17 07:43:56;;;;;;;10.63;6.83;;;6.80;99.90;;;;;;5048391;28;20205;-67
2023/11/17 07:46:24;;;;;;;9.57;6.20;;;6.80;99.90;;;;;;5048660;28;20569;-66
2023/11/17 07:48:53;;;;;;;12.77;6.63;;;6.80;99.90;;;;;;5045881;28;20205;-67
2023/11/17 07:51:21;;;;;;;9.60;6.50;;;6.80;99.90;;;;;;5040937;28;20604;-67
2023/11/17 07:53:49;;;;;;;9.97;6.13;;;6.80;99.90;;;;;;5044668;28;20202;-67
2023/11/17 07:56:16;;;;;;;9.97;6.17;;;6.80;99.90;;;;;;5046830;28;20267;-67
2023/11/17 07:58:43;;;;;;;10.47;6.10;;;6.80;99.90;;;;;;5045491;28;20610;-66
2023/11/17 08:01:10;;;;;;;11.70;7.20;;;6.80;99.90;;;;;;5047971;28;20202;-66
2023/11/17 08:03:38;;;;;;;10.10;6.37;;;6.80;99.90;;;;;;5034352;28;20201;-65
2023/11/17 08:06:10;;;;;;;11.90;6.57;;;6.70;99.90;;;;;;5062336;28;20194;-66
2023/11/17 08:08:39;;;;;;;10.37;5.57;;;6.70;99.90;;;;;;5060814;28;20190;-66
2023/11/17 08:11:06;;;;;;;9.07;5.23;;;6.70;99.90;;;;;;5047703;28;20541;-67
2023/11/17 08:13:33;;;;;;;9.03;5.33;;;6.70;99.90;;;;;;5025491;28;20209;-67
2023/11/17 08:16:00;;;;;;;11.43;6.23;;;6.70;99.90;;;;;;5031363;28;20677;-67
2023/11/17 08:18:27;;;;;;;12.87;6.63;;;6.70;99.90;;;;;;5048129;28;20220;-67
2023/11/17 08:20:54;;;;;;;17.57;7.90;;;6.70;99.90;;;;;;5026760;28;20677;-67
2023/11/17 08:23:24;;;;;;;19.90;8.83;;;6.70;99.90;;;;;;5046269;28;20201;-67
2023/11/17 08:25:52;;;;;;;14.20;7.10;;;6.70;99.90;;;;;;5046899;28;20189;-67
2023/11/17 08:28:19;;;;;;;17.20;8.43;;;6.70;99.90;;;;;;5030809;28;20277;-67
2023/11/17 08:30:47;;;;;;;17.90;9.50;;;6.70;99.90;;;;;;5051112;28;20205;-67
2023/11/17 08:33:14;;;;;;;13.40;7.70;;;6.70;99.90;;;;;;5052099;28;20198;-67
2023/11/17 08:35:41;;;;;;;11.60;7.20;;;6.70;99.90;;;;;;5050532;28;20218;-67
2023/11/17 08:38:08;;;;;;;9.40;5.73;;;6.70;99.90;;;;;;5052266;28;20186;-67
2023/11/17 08:40:37;;;;;;;8.13;5.10;;;6.80;99.90;;;;;;5049397;28;20194;-67
2023/11/17 08:43:05;;;;;;;11.93;6.97;;;6.80;99.90;;;;;;5050789;28;20197;-68
2023/11/17 08:45:32;;;;;;;7.67;5.53;;;6.90;99.90;;;;;;5049119;28;20201;-67
2023/11/17 08:48:01;;;;;;;10.53;6.37;;;6.90;99.90;;;;;;5048140;28;20201;-67
2023/11/17 08:50:28;;;;;;;10.90;5.57;;;6.90;99.90;;;;;;5050155;28;20212;-67
2023/11/17 08:52:55;;;;;;;13.07;7.60;;;6.80;99.90;;;;;;5051676;28;20277;-67
2023/11/17 08:55:24;;;;;;;12.60;7.10;;;6.80;99.90;;;;;;5043689;28;20229;-67
2023/11/17 08:57:53;;;;;;;12.97;6.87;;;6.80;99.90;;;;;;5051593;28;20247;-68
2023/11/17 09:00:25;;;;;;;12.63;6.90;;;6.80;99.90;;;;;;5047852;28;20197;-68
2023/11/17 09:02:53;;;;;;;17.17;8.30;;;6.80;99.90;;;;;;5051449;28;20252;-68
2023/11/17 09:05:23;;;;;;;13.27;7.37;;;6.80;99.90;;;;;;5045674;28;20218;-67
2023/11/17 09:07:50;;;;;;;10.60;6.27;;;6.80;99.90;;;;;;5033220;28;20697;-68
2023/11/17 09:10:21;;;;;;;11.97;6.70;;;6.70;99.90;;;;;;5048340;28;20202;-68
2023/11/17 09:12:50;;;;;;;9.63;6.03;;;6.80;99.90;;;;;;5050067;28;20206;-68
2023/11/17 09:15:21;;;;;;;9.10;5.33;;;6.80;99.90;;;;;;5050835;28;20230;-67
2023/11/17 09:17:51;;;;;;;8.47;5.27;;;6.80;99.90;;;;;;5051044;28;20198;-66
2023/11/17 09:20:18;;;;;;;9.70;5.37;;;6.80;99.90;;;;;;5050547;28;20664;-67
2023/11/17 09:22:46;;;;;;;8.63;5.00;;;6.90;99.90;;;;;;5050144;28;21005;-67
2023/11/17 09:25:14;;;;;;;5.80;4.13;;;6.90;99.90;;;;;;5046004;28;20273;-68
2023/11/17 09:27:42;;;;;;;8.13;4.50;;;6.90;99.90;;;;;;5033292;28;20542;-67
2023/11/17 09:30:13;;;;;;;11.93;6.40;;;6.90;99.90;;;;;;5032791;28;20616;-67
2023/11/17 09:32:44;;;;;;;9.90;5.63;;;6.90;99.90;;;;;;5050960;28;20201;-68
2023/11/17 09:35:13;;;;;;;10.50;6.50;;;6.90;99.90;;;;;;5043759;28;20220;-67
2023/11/17 09:37:49;;;;;;;7.83;5.60;;;7.00;99.90;;;;;;5050780;28;20297;-67
2023/11/17 09:40:20;;;;;;;8.50;5.50;;;6.90;99.90;;;;;;5043686;28;20626;-67
2023/11/17 09:42:50;;;;;;;12.10;6.00;;;6.90;99.90;;;;;;5028308;28;20210;-67
2023/11/17 09:45:21;;;;;;;6.20;4.00;;;6.90;99.90;;;;;;5048321;28;20667;-67
2023/11/17 09:47:54;;;;;;;6.53;4.70;;;6.90;99.90;;;;;;5051220;28;20763;-67
2023/11/17 09:50:23;;;;;;;5.83;4.20;;;6.90;99.90;;;;;;5047494;28;20244;-67
2023/11/17 09:52:52;;;;;;;11.33;6.20;;;7.00;99.90;;;;;;5048942;28;20214;-67
2023/11/17 09:55:22;;;;;;;5.70;4.60;;;7.00;99.90;;;;;;5041434;28;20241;-66
2023/11/17 09:57:53;;;;;;;7.00;5.10;;;7.00;99.90;;;;;;5041365;28;20186;-67
2023/11/17 10:00:21;;;;;;;8.80;4.20;;;7.00;99.90;;;;;;5048786;28;20292;-67
2023/11/17 10:02:55;;;;;;;6.17;4.53;;;7.00;99.90;;;;;;5051097;28;20201;-67
2023/11/17 10:05:23;;;;;;;5.17;4.10;;;7.00;99.90;;;;;;5045383;28;20652;-67
2023/11/17 10:07:53;;;;;;;5.27;4.23;;;7.00;99.90;;;;;;5050367;28;20206;-67
2023/11/17 10:10:21;;;;;;;6.97;4.73;;;7.00;99.90;;;;;;5024810;28;20221;-67
2023/11/17 10:12:50;;;;;;;5.57;4.00;;;7.10;99.90;;;;;;5049970;28;20226;-67
2023/11/17 10:15:24;;;;;;;4.67;3.23;;;7.10;99.90;;;;;;5046606;28;20242;-68
2023/11/17 10:17:56;;;;;;;5.87;3.83;;;7.10;99.90;;;;;;5051144;28;20198;-68
2023/11/17 10:20:24;;;;;;;5.03;4.40;;;7.10;99.90;;;;;;5046607;28;20666;-67
2023/11/17 10:22:52;;;;;;;4.00;3.60;;;7.10;99.90;;;;;;5049235;28;20255;-67
2023/11/17 10:25:21;;;;;;;4.20;3.70;;;7.10;99.90;;;;;;5048461;28;20240;-67
2023/11/17 10:27:50;;;;;;;10.13;4.60;;;7.10;99.90;;;;;;5049986;28;20201;-67
2023/11/17 10:30:19;;;;;;;6.27;4.70;;;7.10;99.90;;;;;;5046074;28;20281;-67
2023/11/17 10:32:59;;;;;;;7.10;5.13;;;7.10;99.90;;;;;;5050021;28;20205;-67
2023/11/17 10:35:31;;;;;;;7.43;5.27;;;7.10;99.90;;;;;;5046446;28;20209;-67
2023/11/17 10:37:58;;;;;;;6.97;4.77;;;7.00;99.90;;;;;;5048863;28;20590;-67
2023/11/17 10:40:28;;;;;;;5.00;4.10;;;7.00;99.90;;;;;;5045368;28;20194;-67
2023/11/17 10:43:09;;;;;;;6.33;4.80;;;7.00;99.90;;;;;;5044840;28;20197;-67
2023/11/17 10:45:38;;;;;;;4.83;4.23;;;7.00;99.90;;;;;;5048467;28;20823;-68
2023/11/17 10:48:07;;;;;;;4.30;3.63;;;7.00;99.90;;;;;;5049318;28;20197;-68
2023/11/17 10:50:38;;;;;;;5.87;4.17;;;7.00;99.90;;;;;;5047107;28;20285;-68
2023/11/17 10:53:24;;;;;;;5.47;4.33;;;7.00;99.90;;;;;;5046441;28;20193;-68
2023/11/17 10:55:53;;;;;;;5.57;3.90;;;7.00;99.90;;;;;;5046032;28;20320;-68
2023/11/17 10:58:20;;;;;;;3.93;3.57;;;7.00;99.90;;;;;;5048486;28;20197;-68
2023/11/17 11:00:49;;;;;;;4.23;3.83;;;7.00;99.90;;;;;;5049267;28;20281;-68
2023/11/17 11:03:18;;;;;;;8.57;5.50;;;7.00;99.90;;;;;;5049364;28;20197;-68
2023/11/17 11:05:47;;;;;;;6.57;5.13;;;7.00;99.90;;;;;;5048042;28;20217;-67
2023/11/17 11:08:18;;;;;;;5.80;4.73;;;7.00;99.90;;;;;;5029870;28;20294;-68
2023/11/17 11:10:54;;;;;;;7.27;4.97;;;7.00;99.90;;;;;;5048360;28;20275;-67
2023/11/17 11:13:28;;;;;;;6.97;5.43;;;7.00;99.90;;;;;;5048217;28;20205;-67
2023/11/17 11:16:05;;;;;;;6.83;5.47;;;7.00;99.90;;;;;;5039363;28;20269;-67
2023/11/17 11:18:35;;;;;;;5.40;4.50;;;6.90;99.90;;;;;;5031219;28;20229;-67
2023/11/17 11:21:06;;;;;;;3.97;3.53;;;6.90;99.90;;;;;;5022122;28;20983;-68
2023/11/17 11:23:36;;;;;;;4.83;3.37;;;6.90;99.90;;;;;;5046126;28;20205;-67
2023/11/17 11:26:04;;;;;;;3.90;3.43;;;6.90;99.90;;;;;;5047303;28;20198;-67
2023/11/17 11:28:31;;;;;;;5.13;3.50;;;6.90;99.90;;;;;;5047074;28;20728;-68
2023/11/17 11:31:00;;;;;;;4.63;3.90;;;7.00;99.90;;;;;;5049078;28;20194;-68
2023/11/17 11:33:30;;;;;;;6.13;4.57;;;7.00;99.90;;;;;;5048664;28;20208;-67
2023/11/17 11:35:59;;;;;;;8.77;5.60;;;7.00;99.90;;;;;;5026393;28;20214;-69
2023/11/17 11:38:27;;;;;;;6.97;5.43;;;7.00;99.90;;;;;;5048744;28;20202;-67
2023/11/17 11:40:55;;;;;;;5.47;3.73;;;7.00;99.90;;;;;;5044172;28;20576;-67
2023/11/17 11:43:23;;;;;;;5.30;4.40;;;7.00;99.90;;;;;;5048160;28;20201;-68
2023/11/17 11:45:51;;;;;;;8.13;5.13;;;7.00;99.90;;;;;;5046964;28;20186;-67
2023/11/17 11:48:21;;;;;;;6.80;5.10;;;7.00;99.90;;;;;;5047694;28;20581;-67
2023/11/17 11:50:51;;;;;;;7.63;5.17;;;7.00;99.90;;;;;;5027872;28;20796;-67
2023/11/17 11:53:30;;;;;;;9.33;5.80;;;7.00;99.90;;;;;;5040408;28;20554;-67
2023/11/17 11:56:02;;;;;;;8.43;4.47;;;7.00;99.90;;;;;;5047445;28;20208;-67
2023/11/17 11:58:29;;;;;;;5.13;4.10;;;6.90;99.90;;;;;;5038427;28;20202;-67
2023/11/17 12:00:58;;;;;;;8.83;5.67;;;6.90;99.90;;;;;;5048203;28;20194;-67
2023/11/17 12:03:25;;;;;;;9.60;5.60;;;7.00;99.90;;;;;;5048197;28;20275;-68
2023/11/17 12:05:54;;;;;;;7.63;4.70;;;6.90;99.90;;;;;;5006757;28;20199;-67
2023/11/17 12:08:27;;;;;;;6.07;4.10;;;6.90;99.90;;;;;;5007180;28;20204;-67
2023/11/17 12:10:57;;;;;;;9.57;6.20;;;6.90;99.90;;;;;;5005265;28;20198;-67
2023/11/17 12:13:41;;;;;;;7.00;4.93;;;6.90;99.90;;;;;;5008371;28;20209;-66
2023/11/17 12:16:11;;;;;;;4.87;3.90;;;6.90;99.90;;;;;;5006746;28;20297;-66
2023/11/17 12:18:38;;;;;;;3.50;3.20;;;6.80;99.90;;;;;;5008690;28;20191;-66
2023/11/17 12:21:17;;;;;;;4.27;3.37;;;6.90;99.90;;;;;;5007615;28;20235;-66
2023/11/17 12:23:55;;;;;;;5.37;4.20;;;6.90;99.90;;;;;;5023196;28;20182;-65
2023/11/17 12:26:25;;;;;;;5.90;4.00;;;6.90;99.90;;;;;;5019625;28;20254;-66
2023/11/17 12:28:53;;;;;;;5.57;3.90;;;6.90;99.90;;;;;;5024530;28;20199;-65
2023/11/17 12:31:20;;;;;;;5.67;3.80;;;6.90;99.90;;;;;;5008065;28;20202;-66
2023/11/17 12:33:50;;;;;;;5.07;4.10;;;6.90;99.90;;;;;;5008044;28;20733;-67
2023/11/17 12:36:19;;;;;;;8.03;4.43;;;7.00;99.90;;;;;;5007592;28;20594;-67
2023/11/17 12:38:52;;;;;;;7.03;4.50;;;7.00;99.90;;;;;;5004269;28;20274;-66
2023/11/17 12:41:22;;;;;;;5.00;4.23;;;6.90;99.90;;;;;;5004873;28;20203;-67
2023/11/17 12:43:51;;;;;;;5.23;3.87;;;6.90;99.90;;;;;;5005334;28;20308;-68
2023/11/17 12:46:18;;;;;;;4.40;3.70;;;6.90;99.90;;;;;;5021305;28;20203;-68
2023/11/17 12:48:47;;;;;;;4.50;3.37;;;7.00;99.90;;;;;;5002149;28;20283;-68
2023/11/17 12:51:24;;;;;;;3.93;3.50;;;7.00;99.90;;;;;;5005102;28;20297;-68
2023/11/17 12:53:53;;;;;;;4.43;3.50;;;7.00;99.90;;;;;;5005849;28;20311;-68
2023/11/17 12:56:22;;;;;;;4.97;3.67;;;7.00;99.90;;;;;;5002785;28;20246;-67
2023/11/17 12:58:49;;;;;;;4.17;3.63;;;7.00;99.90;;;;;;5004661;28;20610;-67
2023/11/17 13:01:17;;;;;;;3.80;3.23;;;7.00;99.90;;;;;;5004640;28;20282;-67
2023/11/17 13:03:45;;;;;;;4.33;3.43;;;7.00;99.90;;;;;;5012503;28;20317;-67